sensor_id;sensor_type;location;lat;lon;timestamp;temperature;humidity
36002;DHT22;22070;50.922;5.430;2024-01-15T00:01:45;2.10;99.90
36002;DHT22;22070;50.922;5.430;2024-01-15T00:04:10;2.10;99.90
36002;DHT22;22070;50.922;5.430;2024-01-15T00:06:36;2.20;99.90
36002;DHT22;22070;50.922;5.430;2024-01-15T00:09:02;2.20;99.90
36002;DHT22;22070;50.922;5.430;2024-01-15T00:11:28;2.10;99.90
36002;DHT22;22070;50.922;5.430;2024-01-15T00:13:53;2.20;99.90
36002;DHT22;22070;50.922;5.430;2024-01-15T00:16:19;2.20;99.90
36002;DHT22;22070;50.922;5.430;2024-01-15T00:18:44;2.10;99.90
36002;DHT22;22070;50.922;5.430;2024-01-15T00:21:10;2.10;99.90
36002;DHT22;22070;50.922;5.430;2024-01-15T00:23:36;2.10;99.90
36002;DHT22;22070;50.922;5.430;2024-01-15T00:26:01;2.10;99.90
36002;DHT22;22070;50.922;5.430;2024-01-15T00:28:27;2.10;99.90
36002;DHT22;22070;50.922;5.430;2024-01-15T00:30:53;2.30;99.90
36002;DHT22;22070;50.922;5.430;2024-01-15T00:33:18;2.00;99.90
36002;DHT22;22070;50.922;5.430;2024-01-15T00:35:44;1.90;99.90
36002;DHT22;22070;50.922;5.430;2024-01-15T00:38:10;2.00;99.90
36002;DHT22;22070;50.922;5.430;2024-01-15T00:40:35;2.00;99.90
36002;DHT22;22070;50.922;5.430;2024-01-15T00:43:01;1.90;99.90
36002;DHT22;22070;50.922;5.430;2024-01-15T00:45:28;1.90;99.90
36002;DHT22;22070;50.922;5.430;2024-01-15T00:47:53;2.10;99.90
36002;DHT22;22070;50.922;5.430;2024-01-15T00:50:21;1.80;99.90
36002;DHT22;22070;50.922;5.430;2024-01-15T00:52:47;1.80;99.90
36002;DHT22;22070;50.922;5.430;2024-01-15T00:55:13;1.70;99.90
36002;DHT22;22070;50.922;5.430;2024-01-15T00:57:39;1.70;99.90
36002;DHT22;22070;50.922;5.430;2024-01-15T01:00:05;1.80;99.90
36002;DHT22;22070;50.922;5.430;2024-01-15T01:02:32;1.80;99.90
36002;DHT22;22070;50.922;5.430;2024-01-15T01:04:57;1.70;99.90
36002;DHT22;22070;50.922;5.430;2024-01-15T01:07:23;1.60;99.90
36002;DHT22;22070;50.922;5.430;2024-01-15T01:09:48;1.60;99.90
36002;DHT22;22070;50.922;5.430;2024-01-15T01:12:14;1.60;99.90
36002;DHT22;22070;50.922;5.430;2024-01-15T01:14:40;1.80;99.90
36002;DHT22;22070;50.922;5.430;2024-01-15T01:17:06;1.70;99.90
36002;DHT22;22070;50.922;5.430;2024-01-15T01:19:31;1.80;99.90
36002;DHT22;22070;50.922;5.430;2024-01-15T01:21:57;1.70;99.90
36002;DHT22;22070;50.922;5.430;2024-01-15T01:24:22;1.80;99.90
36002;DHT22;22070;50.922;5.430;2024-01-15T01:26:48;1.80;99.90
36002;DHT22;22070;50.922;5.430;2024-01-15T01:29:14;1.80;99.90
36002;DHT22;22070;50.922;5.430;2024-01-15T01:31:44;1.90;99.90
36002;DHT22;22070;50.922;5.430;2024-01-15T01:34:10;1.80;99.90
36002;DHT22;22070;50.922;5.430;2024-01-15T01:36:35;1.90;99.90
36002;DHT22;22070;50.922;5.430;2024-01-15T01:39:01;1.80;99.90
36002;DHT22;22070;50.922;5.430;2024-01-15T01:41:27;1.80;99.90
36002;DHT22;22070;50.922;5.430;2024-01-15T01:43:52;1.80;99.90
36002;DHT22;22070;50.922;5.430;2024-01-15T01:46:18;1.80;99.90
36002;DHT22;22070;50.922;5.430;2024-01-15T01:48:44;1.90;99.90
36002;DHT22;22070;50.922;5.430;2024-01-15T01:51:10;1.80;99.90
36002;DHT22;22070;50.922;5.430;2024-01-15T01:53:38;1.90;99.90
36002;DHT22;22070;50.922;5.430;2024-01-15T01:56:04;1.90;99.90
36002;DHT22;22070;50.922;5.430;2024-01-15T01:58:31;1.90;99.90
36002;DHT22;22070;50.922;5.430;2024-01-15T02:00:57;2.00;99.90
36002;DHT22;22070;50.922;5.430;2024-01-15T02:03:22;1.90;99.90
36002;DHT22;22070;50.922;5.430;2024-01-15T02:05:49;1.90;99.90
36002;DHT22;22070;50.922;5.430;2024-01-15T02:08:15;1.90;99.90
36002;DHT22;22070;50.922;5.430;2024-01-15T02:10:40;1.90;99.90
36002;DHT22;22070;50.922;5.430;2024-01-15T02:13:06;1.90;99.90
36002;DHT22;22070;50.922;5.430;2024-01-15T02:15:32;1.90;99.90
36002;DHT22;22070;50.922;5.430;2024-01-15T02:18:03;2.00;99.90
36002;DHT22;22070;50.922;5.430;2024-01-15T02:20:30;2.00;99.90
36002;DHT22;22070;50.922;5.430;2024-01-15T02:23:08;2.00;99.90
36002;DHT22;22070;50.922;5.430;2024-01-15T02:25:39;2.00;99.90
36002;DHT22;22070;50.922;5.430;2024-01-15T02:28:06;2.10;99.90
36002;DHT22;22070;50.922;5.430;2024-01-15T02:30:36;2.10;99.90
36002;DHT22;22070;50.922;5.430;2024-01-15T02:33:03;2.10;99.90
36002;DHT22;22070;50.922;5.430;2024-01-15T02:35:29;2.10;99.90
36002;DHT22;22070;50.922;5.430;2024-01-15T02:37:54;2.10;99.90
36002;DHT22;22070;50.922;5.430;2024-01-15T02:40:20;2.20;99.90
36002;DHT22;22070;50.922;5.430;2024-01-15T02:42:45;2.20;99.90
36002;DHT22;22070;50.922;5.430;2024-01-15T02:45:11;2.20;99.90
36002;DHT22;22070;50.922;5.430;2024-01-15T02:47:37;2.20;99.90
36002;DHT22;22070;50.922;5.430;2024-01-15T02:50:02;2.40;99.90
36002;DHT22;22070;50.922;5.430;2024-01-15T02:52:28;2.20;99.90
36002;DHT22;22070;50.922;5.430;2024-01-15T02:54:54;2.20;99.90
36002;DHT22;22070;50.922;5.430;2024-01-15T02:57:19;2.20;99.90
36002;DHT22;22070;50.922;5.430;2024-01-15T02:59:45;2.20;99.90
36002;DHT22;22070;50.922;5.430;2024-01-15T03:02:11;2.10;99.90
36002;DHT22;22070;50.922;5.430;2024-01-15T03:04:36;2.10;99.90
36002;DHT22;22070;50.922;5.430;2024-01-15T03:07:02;2.20;99.90
36002;DHT22;22070;50.922;5.430;2024-01-15T03:09:28;2.20;99.90
36002;DHT22;22070;50.922;5.430;2024-01-15T03:11:53;2.20;99.90
36002;DHT22;22070;50.922;5.430;2024-01-15T03:14:19;2.20;99.90
36002;DHT22;22070;50.922;5.430;2024-01-15T03:16:45;2.20;99.90
36002;DHT22;22070;50.922;5.430;2024-01-15T03:19:11;2.20;99.90
36002;DHT22;22070;50.922;5.430;2024-01-15T03:21:37;2.20;99.90
36002;DHT22;22070;50.922;5.430;2024-01-15T03:24:02;2.20;99.90
36002;DHT22;22070;50.922;5.430;2024-01-15T03:26:28;2.20;99.90
36002;DHT22;22070;50.922;5.430;2024-01-15T03:28:54;2.20;99.90
36002;DHT22;22070;50.922;5.430;2024-01-15T03:31:19;2.20;99.90
36002;DHT22;22070;50.922;5.430;2024-01-15T03:33:45;2.30;99.90
36002;DHT22;22070;50.922;5.430;2024-01-15T03:36:11;2.30;99.90
36002;DHT22;22070;50.922;5.430;2024-01-15T03:38:43;2.40;99.90
36002;DHT22;22070;50.922;5.430;2024-01-15T03:41:08;2.50;99.90
36002;DHT22;22070;50.922;5.430;2024-01-15T03:43:34;2.50;99.90
36002;DHT22;22070;50.922;5.430;2024-01-15T03:46:00;2.50;99.90
36002;DHT22;22070;50.922;5.430;2024-01-15T03:48:26;2.50;99.90
36002;DHT22;22070;50.922;5.430;2024-01-15T03:50:51;2.50;99.90
36002;DHT22;22070;50.922;5.430;2024-01-15T03:53:17;2.50;99.90
36002;DHT22;22070;50.922;5.430;2024-01-15T03:55:42;2.50;99.90
36002;DHT22;22070;50.922;5.430;2024-01-15T03:58:08;2.40;99.90
36002;DHT22;22070;50.922;5.430;2024-01-15T04:00:34;2.50;99.90
36002;DHT22;22070;50.922;5.430;2024-01-15T04:03:00;2.40;99.90
36002;DHT22;22070;50.922;5.430;2024-01-15T04:05:25;2.40;99.90
36002;DHT22;22070;50.922;5.430;2024-01-15T04:07:51;2.40;99.90
36002;DHT22;22070;50.922;5.430;2024-01-15T04:10:17;2.30;99.90
36002;DHT22;22070;50.922;5.430;2024-01-15T04:12:42;2.30;99.90
36002;DHT22;22070;50.922;5.430;2024-01-15T04:15:08;2.40;99.90
36002;DHT22;22070;50.922;5.430;2024-01-15T04:17:34;2.40;99.90
36002;DHT22;22070;50.922;5.430;2024-01-15T04:20:00;2.40;99.90
36002;DHT22;22070;50.922;5.430;2024-01-15T04:22:26;2.40;99.90
36002;DHT22;22070;50.922;5.430;2024-01-15T04:24:52;2.30;99.90
36002;DHT22;22070;50.922;5.430;2024-01-15T04:27:18;2.20;99.90
36002;DHT22;22070;50.922;5.430;2024-01-15T04:29:43;2.30;99.90
36002;DHT22;22070;50.922;5.430;2024-01-15T04:32:10;2.20;99.90
36002;DHT22;22070;50.922;5.430;2024-01-15T04:34:35;2.20;99.90
36002;DHT22;22070;50.922;5.430;2024-01-15T04:37:01;2.40;99.90
36002;DHT22;22070;50.922;5.430;2024-01-15T04:39:27;2.30;99.90
36002;DHT22;22070;50.922;5.430;2024-01-15T04:41:53;2.30;99.90
36002;DHT22;22070;50.922;5.430;2024-01-15T04:44:18;2.20;99.90
36002;DHT22;22070;50.922;5.430;2024-01-15T04:46:44;2.20;99.90
36002;DHT22;22070;50.922;5.430;2024-01-15T04:49:11;2.30;99.90
36002;DHT22;22070;50.922;5.430;2024-01-15T04:51:36;2.20;99.90
36002;DHT22;22070;50.922;5.430;2024-01-15T04:54:02;2.20;99.90
36002;DHT22;22070;50.922;5.430;2024-01-15T04:56:28;2.30;99.90
36002;DHT22;22070;50.922;5.430;2024-01-15T04:58:53;2.30;99.90
36002;DHT22;22070;50.922;5.430;2024-01-15T05:01:19;2.30;99.90
36002;DHT22;22070;50.922;5.430;2024-01-15T05:03:44;2.30;99.90
36002;DHT22;22070;50.922;5.430;2024-01-15T05:06:10;2.30;99.90
36002;DHT22;22070;50.922;5.430;2024-01-15T05:08:36;2.30;99.90
36002;DHT22;22070;50.922;5.430;2024-01-15T05:11:01;2.20;99.90
36002;DHT22;22070;50.922;5.430;2024-01-15T05:13:27;2.20;99.90
36002;DHT22;22070;50.922;5.430;2024-01-15T05:15:53;2.10;99.90
36002;DHT22;22070;50.922;5.430;2024-01-15T05:18:19;2.10;99.90
36002;DHT22;22070;50.922;5.430;2024-01-15T05:20:44;2.20;99.90
36002;DHT22;22070;50.922;5.430;2024-01-15T05:23:10;2.20;99.90
36002;DHT22;22070;50.922;5.430;2024-01-15T05:25:36;2.10;99.90
36002;DHT22;22070;50.922;5.430;2024-01-15T05:28:02;2.10;99.90
36002;DHT22;22070;50.922;5.430;2024-01-15T05:30:27;2.10;99.90
36002;DHT22;22070;50.922;5.430;2024-01-15T05:32:53;2.10;99.90
36002;DHT22;22070;50.922;5.430;2024-01-15T05:35:19;2.00;99.90
36002;DHT22;22070;50.922;5.430;2024-01-15T05:37:45;2.00;99.90
36002;DHT22;22070;50.922;5.430;2024-01-15T05:40:12;2.00;99.90
36002;DHT22;22070;50.922;5.430;2024-01-15T05:42:38;2.00;99.90
36002;DHT22;22070;50.922;5.430;2024-01-15T05:45:05;1.90;99.90
36002;DHT22;22070;50.922;5.430;2024-01-15T05:47:31;2.00;99.90
36002;DHT22;22070;50.922;5.430;2024-01-15T05:49:57;1.90;99.90
36002;DHT22;22070;50.922;5.430;2024-01-15T05:52:23;1.90;99.90
36002;DHT22;22070;50.922;5.430;2024-01-15T05:54:52;1.90;99.90
36002;DHT22;22070;50.922;5.430;2024-01-15T05:57:17;2.00;99.90
36002;DHT22;22070;50.922;5.430;2024-01-15T05:59:44;1.90;99.90
36002;DHT22;22070;50.922;5.430;2024-01-15T06:02:10;1.80;99.90
36002;DHT22;22070;50.922;5.430;2024-01-15T06:04:36;1.80;99.90
36002;DHT22;22070;50.922;5.430;2024-01-15T06:07:02;1.80;99.90
36002;DHT22;22070;50.922;5.430;2024-01-15T06:09:27;1.80;99.90
36002;DHT22;22070;50.922;5.430;2024-01-15T06:11:54;1.80;99.90
36002;DHT22;22070;50.922;5.430;2024-01-15T06:14:19;1.70;99.90
36002;DHT22;22070;50.922;5.430;2024-01-15T06:16:45;1.70;99.90
36002;DHT22;22070;50.922;5.430;2024-01-15T06:19:11;1.70;99.90
36002;DHT22;22070;50.922;5.430;2024-01-15T06:21:36;1.60;99.90
36002;DHT22;22070;50.922;5.430;2024-01-15T06:24:02;1.70;99.90
36002;DHT22;22070;50.922;5.430;2024-01-15T06:26:28;1.70;99.90
36002;DHT22;22070;50.922;5.430;2024-01-15T06:28:53;1.80;99.90
36002;DHT22;22070;50.922;5.430;2024-01-15T06:31:19;1.70;99.90
36002;DHT22;22070;50.922;5.430;2024-01-15T06:33:45;1.80;99.90
36002;DHT22;22070;50.922;5.430;2024-01-15T06:36:13;1.60;99.90
36002;DHT22;22070;50.922;5.430;2024-01-15T06:38:39;1.60;99.90
36002;DHT22;22070;50.922;5.430;2024-01-15T06:41:05;1.60;99.90
36002;DHT22;22070;50.922;5.430;2024-01-15T06:43:30;1.70;99.90
36002;DHT22;22070;50.922;5.430;2024-01-15T06:45:56;1.80;99.90
36002;DHT22;22070;50.922;5.430;2024-01-15T06:48:22;1.90;99.90
36002;DHT22;22070;50.922;5.430;2024-01-15T06:50:47;1.70;99.90
36002;DHT22;22070;50.922;5.430;2024-01-15T06:53:13;1.70;99.90
36002;DHT22;22070;50.922;5.430;2024-01-15T06:55:39;1.70;99.90
36002;DHT22;22070;50.922;5.430;2024-01-15T06:58:05;1.70;99.90
36002;DHT22;22070;50.922;5.430;2024-01-15T07:00:30;1.80;99.90
36002;DHT22;22070;50.922;5.430;2024-01-15T07:02:56;1.70;99.90
36002;DHT22;22070;50.922;5.430;2024-01-15T07:05:22;1.70;99.90
36002;DHT22;22070;50.922;5.430;2024-01-15T07:07:48;1.60;99.90
36002;DHT22;22070;50.922;5.430;2024-01-15T07:10:14;1.70;99.90
36002;DHT22;22070;50.922;5.430;2024-01-15T07:12:42;1.70;99.90
36002;DHT22;22070;50.922;5.430;2024-01-15T07:15:08;1.70;99.90
36002;DHT22;22070;50.922;5.430;2024-01-15T07:17:35;1.80;99.90
36002;DHT22;22070;50.922;5.430;2024-01-15T07:20:01;1.80;99.90
36002;DHT22;22070;50.922;5.430;2024-01-15T07:22:27;1.80;99.90
36002;DHT22;22070;50.922;5.430;2024-01-15T07:24:53;1.80;99.90
36002;DHT22;22070;50.922;5.430;2024-01-15T07:27:20;1.80;99.90
36002;DHT22;22070;50.922;5.430;2024-01-15T07:29:45;2.10;99.90
36002;DHT22;22070;50.922;5.430;2024-01-15T07:32:11;1.90;99.90
36002;DHT22;22070;50.922;5.430;2024-01-15T07:34:37;1.80;99.90
36002;DHT22;22070;50.922;5.430;2024-01-15T07:37:03;1.80;99.90
36002;DHT22;22070;50.922;5.430;2024-01-15T07:39:29;1.80;99.90
36002;DHT22;22070;50.922;5.430;2024-01-15T07:41:56;1.80;99.90
36002;DHT22;22070;50.922;5.430;2024-01-15T07:44:21;1.90;99.90
36002;DHT22;22070;50.922;5.430;2024-01-15T07:46:47;2.00;99.90
36002;DHT22;22070;50.922;5.430;2024-01-15T07:49:13;2.00;99.90
36002;DHT22;22070;50.922;5.430;2024-01-15T07:51:39;2.00;99.90
36002;DHT22;22070;50.922;5.430;2024-01-15T07:54:06;2.00;99.90
36002;DHT22;22070;50.922;5.430;2024-01-15T07:56:32;2.10;99.90
36002;DHT22;22070;50.922;5.430;2024-01-15T07:58:58;2.00;99.90
36002;DHT22;22070;50.922;5.430;2024-01-15T08:01:24;2.10;99.90
36002;DHT22;22070;50.922;5.430;2024-01-15T08:03:49;2.10;99.90
36002;DHT22;22070;50.922;5.430;2024-01-15T08:06:15;2.10;99.90
36002;DHT22;22070;50.922;5.430;2024-01-15T08:08:41;2.00;99.90
36002;DHT22;22070;50.922;5.430;2024-01-15T08:11:07;2.10;99.90
36002;DHT22;22070;50.922;5.430;2024-01-15T08:13:33;2.30;99.90
36002;DHT22;22070;50.922;5.430;2024-01-15T08:15:58;2.10;99.90
36002;DHT22;22070;50.922;5.430;2024-01-15T08:18:24;2.30;99.90
36002;DHT22;22070;50.922;5.430;2024-01-15T08:20:50;2.10;99.90
36002;DHT22;22070;50.922;5.430;2024-01-15T08:23:17;2.10;99.90
36002;DHT22;22070;50.922;5.430;2024-01-15T08:25:43;2.10;99.90
36002;DHT22;22070;50.922;5.430;2024-01-15T08:28:08;2.10;99.90
36002;DHT22;22070;50.922;5.430;2024-01-15T08:30:34;2.10;99.90
36002;DHT22;22070;50.922;5.430;2024-01-15T08:33:00;2.10;99.90
36002;DHT22;22070;50.922;5.430;2024-01-15T08:35:26;2.10;99.90
36002;DHT22;22070;50.922;5.430;2024-01-15T08:37:54;2.20;99.90
36002;DHT22;22070;50.922;5.430;2024-01-15T08:40:20;2.10;99.90
36002;DHT22;22070;50.922;5.430;2024-01-15T08:42:46;2.20;99.90
36002;DHT22;22070;50.922;5.430;2024-01-15T08:45:12;2.20;99.90
36002;DHT22;22070;50.922;5.430;2024-01-15T08:47:38;2.20;99.90
36002;DHT22;22070;50.922;5.430;2024-01-15T08:50:04;2.10;99.90
36002;DHT22;22070;50.922;5.430;2024-01-15T08:52:30;2.20;99.90
36002;DHT22;22070;50.922;5.430;2024-01-15T08:54:56;2.20;99.90
36002;DHT22;22070;50.922;5.430;2024-01-15T08:57:22;2.10;99.90
36002;DHT22;22070;50.922;5.430;2024-01-15T08:59:48;2.10;99.90
36002;DHT22;22070;50.922;5.430;2024-01-15T09:02:14;2.00;99.90
36002;DHT22;22070;50.922;5.430;2024-01-15T09:04:41;1.90;99.90
36002;DHT22;22070;50.922;5.430;2024-01-15T09:07:07;1.90;99.90
36002;DHT22;22070;50.922;5.430;2024-01-15T09:09:33;2.20;99.90
36002;DHT22;22070;50.922;5.430;2024-01-15T09:11:59;1.90;99.90
36002;DHT22;22070;50.922;5.430;2024-01-15T09:14:25;1.90;99.90
36002;DHT22;22070;50.922;5.430;2024-01-15T09:16:52;1.90;99.90
36002;DHT22;22070;50.922;5.430;2024-01-15T09:19:18;1.90;99.90
36002;DHT22;22070;50.922;5.430;2024-01-15T09:21:44;2.00;99.90
36002;DHT22;22070;50.922;5.430;2024-01-15T09:24:11;1.90;99.90
36002;DHT22;22070;50.922;5.430;2024-01-15T09:26:36;1.90;99.90
36002;DHT22;22070;50.922;5.430;2024-01-15T09:29:02;1.80;99.90
36002;DHT22;22070;50.922;5.430;2024-01-15T09:31:28;1.90;99.90
36002;DHT22;22070;50.922;5.430;2024-01-15T09:33:54;1.80;99.90
36002;DHT22;22070;50.922;5.430;2024-01-15T09:36:24;1.90;99.90
36002;DHT22;22070;50.922;5.430;2024-01-15T09:38:51;2.10;99.90
36002;DHT22;22070;50.922;5.430;2024-01-15T09:41:17;2.00;99.90
36002;DHT22;22070;50.922;5.430;2024-01-15T09:43:43;2.00;99.90
36002;DHT22;22070;50.922;5.430;2024-01-15T09:46:09;2.00;99.90
36002;DHT22;22070;50.922;5.430;2024-01-15T09:48:35;2.10;99.90
36002;DHT22;22070;50.922;5.430;2024-01-15T09:51:05;2.10;99.90
36002;DHT22;22070;50.922;5.430;2024-01-15T09:53:32;2.10;99.90
36002;DHT22;22070;50.922;5.430;2024-01-15T09:55:58;2.20;99.90
36002;DHT22;22070;50.922;5.430;2024-01-15T09:58:24;2.20;99.90
36002;DHT22;22070;50.922;5.430;2024-01-15T10:00:50;2.20;99.90
36002;DHT22;22070;50.922;5.430;2024-01-15T10:03:17;2.30;99.90
36002;DHT22;22070;50.922;5.430;2024-01-15T10:05:43;2.30;99.90
36002;DHT22;22070;50.922;5.430;2024-01-15T10:08:09;2.30;99.90
36002;DHT22;22070;50.922;5.430;2024-01-15T10:10:36;2.30;99.90
36002;DHT22;22070;50.922;5.430;2024-01-15T10:13:04;2.40;99.90
36002;DHT22;22070;50.922;5.430;2024-01-15T10:15:34;2.30;99.90
36002;DHT22;22070;50.922;5.430;2024-01-15T10:18:00;2.40;99.90
36002;DHT22;22070;50.922;5.430;2024-01-15T10:20:25;2.50;99.90
36002;DHT22;22070;50.922;5.430;2024-01-15T10:22:51;2.50;99.90
36002;DHT22;22070;50.922;5.430;2024-01-15T10:25:17;2.50;99.90
36002;DHT22;22070;50.922;5.430;2024-01-15T10:27:59;2.60;99.90
36002;DHT22;22070;50.922;5.430;2024-01-15T10:30:25;2.60;99.90
36002;DHT22;22070;50.922;5.430;2024-01-15T10:32:58;2.70;99.90
36002;DHT22;22070;50.922;5.430;2024-01-15T10:35:27;2.70;99.90
36002;DHT22;22070;50.922;5.430;2024-01-15T10:37:52;2.70;99.90
36002;DHT22;22070;50.922;5.430;2024-01-15T10:40:19;2.80;99.90
36002;DHT22;22070;50.922;5.430;2024-01-15T10:42:44;2.90;99.90
36002;DHT22;22070;50.922;5.430;2024-01-15T10:45:10;3.00;99.90
36002;DHT22;22070;50.922;5.430;2024-01-15T10:47:36;3.00;99.90
36002;DHT22;22070;50.922;5.430;2024-01-15T10:50:02;3.00;99.90
36002;DHT22;22070;50.922;5.430;2024-01-15T10:52:29;2.90;99.90
36002;DHT22;22070;50.922;5.430;2024-01-15T10:54:55;3.00;99.90
36002;DHT22;22070;50.922;5.430;2024-01-15T10:57:21;3.00;99.90
36002;DHT22;22070;50.922;5.430;2024-01-15T10:59:47;3.10;99.90
36002;DHT22;22070;50.922;5.430;2024-01-15T11:02:15;3.20;99.90
36002;DHT22;22070;50.922;5.430;2024-01-15T11:04:41;3.30;99.90
36002;DHT22;22070;50.922;5.430;2024-01-15T11:07:06;3.40;99.90
36002;DHT22;22070;50.922;5.430;2024-01-15T11:09:32;3.40;99.90
36002;DHT22;22070;50.922;5.430;2024-01-15T11:12:10;3.40;99.90
36002;DHT22;22070;50.922;5.430;2024-01-15T11:14:49;3.50;99.90
36002;DHT22;22070;50.922;5.430;2024-01-15T11:17:15;3.50;99.90
36002;DHT22;22070;50.922;5.430;2024-01-15T11:25:01;3.90;99.90
36002;DHT22;22070;50.922;5.430;2024-01-15T11:27:44;4.00;99.90
36002;DHT22;22070;50.922;5.430;2024-01-15T11:30:13;3.90;99.90
36002;DHT22;22070;50.922;5.430;2024-01-15T11:32:39;3.80;99.90
36002;DHT22;22070;50.922;5.430;2024-01-15T11:35:09;3.70;99.90
36002;DHT22;22070;50.922;5.430;2024-01-15T11:40:24;3.70;99.90
36002;DHT22;22070;50.922;5.430;2024-01-15T11:43:03;3.70;99.90
36002;DHT22;22070;50.922;5.430;2024-01-15T11:45:30;3.50;99.90
36002;DHT22;22070;50.922;5.430;2024-01-15T11:50:26;3.60;99.90
36002;DHT22;22070;50.922;5.430;2024-01-15T11:53:02;3.40;99.90
36002;DHT22;22070;50.922;5.430;2024-01-15T11:55:38;3.30;99.90
36002;DHT22;22070;50.922;5.430;2024-01-15T11:58:08;3.10;99.90
36002;DHT22;22070;50.922;5.430;2024-01-15T12:01:03;3.00;99.90
36002;DHT22;22070;50.922;5.430;2024-01-15T12:03:32;2.60;99.90
36002;DHT22;22070;50.922;5.430;2024-01-15T12:06:00;2.50;99.90
36002;DHT22;22070;50.922;5.430;2024-01-15T12:08:25;2.50;99.90
36002;DHT22;22070;50.922;5.430;2024-01-15T12:10:53;2.40;99.90
36002;DHT22;22070;50.922;5.430;2024-01-15T12:13:19;2.40;99.90
36002;DHT22;22070;50.922;5.430;2024-01-15T12:15:46;2.40;99.90
36002;DHT22;22070;50.922;5.430;2024-01-15T12:18:13;2.40;99.90
36002;DHT22;22070;50.922;5.430;2024-01-15T12:20:40;2.30;99.90
36002;DHT22;22070;50.922;5.430;2024-01-15T12:23:06;2.40;99.90
36002;DHT22;22070;50.922;5.430;2024-01-15T12:25:33;2.50;99.90
36002;DHT22;22070;50.922;5.430;2024-01-15T12:28:00;2.60;99.90
36002;DHT22;22070;50.922;5.430;2024-01-15T12:30:27;2.60;99.90
36002;DHT22;22070;50.922;5.430;2024-01-15T12:32:53;2.50;99.90
36002;DHT22;22070;50.922;5.430;2024-01-15T12:35:18;2.40;99.90
36002;DHT22;22070;50.922;5.430;2024-01-15T12:37:44;2.40;99.90
36002;DHT22;22070;50.922;5.430;2024-01-15T12:40:19;2.40;99.90
36002;DHT22;22070;50.922;5.430;2024-01-15T12:42:45;2.20;99.90
36002;DHT22;22070;50.922;5.430;2024-01-15T12:45:12;2.30;99.90
36002;DHT22;22070;50.922;5.430;2024-01-15T12:47:41;2.30;99.90
36002;DHT22;22070;50.922;5.430;2024-01-15T12:50:09;2.30;99.90
36002;DHT22;22070;50.922;5.430;2024-01-15T12:52:35;2.30;99.90
36002;DHT22;22070;50.922;5.430;2024-01-15T12:55:06;2.20;99.90
36002;DHT22;22070;50.922;5.430;2024-01-15T12:57:33;2.30;99.90
36002;DHT22;22070;50.922;5.430;2024-01-15T12:59:59;2.40;99.90
36002;DHT22;22070;50.922;5.430;2024-01-15T13:02:25;2.50;99.90
36002;DHT22;22070;50.922;5.430;2024-01-15T13:04:51;2.60;99.90
36002;DHT22;22070;50.922;5.430;2024-01-15T13:07:17;2.60;99.90
36002;DHT22;22070;50.922;5.430;2024-01-15T13:09:42;2.60;99.90
36002;DHT22;22070;50.922;5.430;2024-01-15T13:12:08;2.50;99.90
36002;DHT22;22070;50.922;5.430;2024-01-15T13:14:34;2.60;99.90
36002;DHT22;22070;50.922;5.430;2024-01-15T13:17:00;2.50;99.90
36002;DHT22;22070;50.922;5.430;2024-01-15T13:19:26;2.40;99.90
36002;DHT22;22070;50.922;5.430;2024-01-15T13:21:53;2.30;99.90
36002;DHT22;22070;50.922;5.430;2024-01-15T13:24:20;2.30;99.90
36002;DHT22;22070;50.922;5.430;2024-01-15T13:26:45;2.20;99.90
36002;DHT22;22070;50.922;5.430;2024-01-15T13:29:11;2.20;99.90
36002;DHT22;22070;50.922;5.430;2024-01-15T13:31:37;2.20;99.90
36002;DHT22;22070;50.922;5.430;2024-01-15T13:34:03;2.40;99.90
36002;DHT22;22070;50.922;5.430;2024-01-15T13:36:29;2.30;99.90
36002;DHT22;22070;50.922;5.430;2024-01-15T13:38:55;2.30;99.90
36002;DHT22;22070;50.922;5.430;2024-01-15T13:41:23;2.50;99.90
36002;DHT22;22070;50.922;5.430;2024-01-15T13:43:54;2.40;99.90
36002;DHT22;22070;50.922;5.430;2024-01-15T13:46:20;2.40;99.90
36002;DHT22;22070;50.922;5.430;2024-01-15T13:48:47;2.40;99.90
36002;DHT22;22070;50.922;5.430;2024-01-15T13:51:13;2.50;99.90
36002;DHT22;22070;50.922;5.430;2024-01-15T13:53:38;2.40;99.90
36002;DHT22;22070;50.922;5.430;2024-01-15T13:56:05;2.50;99.90
36002;DHT22;22070;50.922;5.430;2024-01-15T13:58:31;2.40;99.90
36002;DHT22;22070;50.922;5.430;2024-01-15T14:00:58;2.60;99.90
36002;DHT22;22070;50.922;5.430;2024-01-15T14:03:24;2.40;99.90
36002;DHT22;22070;50.922;5.430;2024-01-15T14:05:51;2.40;99.90
36002;DHT22;22070;50.922;5.430;2024-01-15T14:08:17;2.50;99.90
36002;DHT22;22070;50.922;5.430;2024-01-15T14:10:42;2.60;99.90
36002;DHT22;22070;50.922;5.430;2024-01-15T14:13:08;2.50;99.90
36002;DHT22;22070;50.922;5.430;2024-01-15T14:15:34;2.40;99.90
36002;DHT22;22070;50.922;5.430;2024-01-15T14:18:00;2.50;99.90
36002;DHT22;22070;50.922;5.430;2024-01-15T14:20:26;2.40;99.90
36002;DHT22;22070;50.922;5.430;2024-01-15T14:22:53;2.40;99.90
36002;DHT22;22070;50.922;5.430;2024-01-15T14:25:20;2.40;99.90
36002;DHT22;22070;50.922;5.430;2024-01-15T14:27:45;2.40;99.90
36002;DHT22;22070;50.922;5.430;2024-01-15T14:30:11;2.40;99.90
36002;DHT22;22070;50.922;5.430;2024-01-15T14:32:38;2.50;99.90
36002;DHT22;22070;50.922;5.430;2024-01-15T14:35:05;2.40;99.90
36002;DHT22;22070;50.922;5.430;2024-01-15T14:37:31;2.50;99.90
36002;DHT22;22070;50.922;5.430;2024-01-15T14:39:57;2.50;99.90
36002;DHT22;22070;50.922;5.430;2024-01-15T14:42:23;2.40;99.90
36002;DHT22;22070;50.922;5.430;2024-01-15T14:44:49;2.40;99.90
36002;DHT22;22070;50.922;5.430;2024-01-15T14:47:15;2.50;99.90
36002;DHT22;22070;50.922;5.430;2024-01-15T14:49:41;2.30;99.90
36002;DHT22;22070;50.922;5.430;2024-01-15T14:52:06;2.30;99.90
36002;DHT22;22070;50.922;5.430;2024-01-15T14:54:32;2.30;99.90
36002;DHT22;22070;50.922;5.430;2024-01-15T14:56:58;2.30;99.90
36002;DHT22;22070;50.922;5.430;2024-01-15T14:59:24;2.40;99.90
36002;DHT22;22070;50.922;5.430;2024-01-15T15:01:49;2.40;99.90
36002;DHT22;22070;50.922;5.430;2024-01-15T15:04:15;2.30;99.90
36002;DHT22;22070;50.922;5.430;2024-01-15T15:06:41;2.30;99.90
36002;DHT22;22070;50.922;5.430;2024-01-15T15:09:06;2.50;99.90
36002;DHT22;22070;50.922;5.430;2024-01-15T15:11:35;2.40;99.90
36002;DHT22;22070;50.922;5.430;2024-01-15T15:14:02;2.40;99.90
36002;DHT22;22070;50.922;5.430;2024-01-15T15:16:29;2.40;99.90
36002;DHT22;22070;50.922;5.430;2024-01-15T15:18:55;2.40;99.90
36002;DHT22;22070;50.922;5.430;2024-01-15T15:21:21;2.40;99.90
36002;DHT22;22070;50.922;5.430;2024-01-15T15:23:47;2.50;99.90
36002;DHT22;22070;50.922;5.430;2024-01-15T15:26:15;2.50;99.90
36002;DHT22;22070;50.922;5.430;2024-01-15T15:28:41;2.60;99.90
36002;DHT22;22070;50.922;5.430;2024-01-15T15:31:07;2.70;99.90
36002;DHT22;22070;50.922;5.430;2024-01-15T15:33:39;2.50;99.90
36002;DHT22;22070;50.922;5.430;2024-01-15T15:36:05;2.30;99.90
36002;DHT22;22070;50.922;5.430;2024-01-15T15:38:34;2.50;99.90
36002;DHT22;22070;50.922;5.430;2024-01-15T15:41:00;2.40;99.90
36002;DHT22;22070;50.922;5.430;2024-01-15T15:43:26;2.30;99.90
36002;DHT22;22070;50.922;5.430;2024-01-15T15:45:52;2.30;99.90
36002;DHT22;22070;50.922;5.430;2024-01-15T15:48:18;2.30;99.90
36002;DHT22;22070;50.922;5.430;2024-01-15T15:50:44;2.30;99.90